sensor_id;sensor_type;location;lat;lon;timestamp;pressure;altitude;pressure_sealevel;temperature;humidity
17450;BME280;8842;51.244;7.102;2022-08-19T00:07:22;99143.86;;;19.03;100.00
17450;BME280;8842;51.244;7.102;2022-08-19T00:17:39;99154.06;;;18.85;100.00
17450;BME280;8842;51.244;7.102;2022-08-19T00:27:55;99153.36;;;18.91;100.00
17450;BME280;8842;51.244;7.102;2022-08-19T00:38:11;99150.42;;;18.74;100.00
17450;BME280;8842;51.244;7.102;2022-08-19T00:48:30;99157.21;;;18.66;100.00
17450;BME280;8842;51.244;7.102;2022-08-19T00:58:47;99148.32;;;18.61;100.00
17450;BME280;8842;51.244;7.102;2022-08-19T01:09:03;99131.39;;;18.53;100.00
17450;BME280;8842;51.244;7.102;2022-08-19T01:19:24;99151.04;;;18.53;100.00
17450;BME280;8842;51.244;7.102;2022-08-19T01:29:42;99141.45;;;18.55;100.00
17450;BME280;8842;51.244;7.102;2022-08-19T01:40:00;99132.73;;;18.53;100.00
17450;BME280;8842;51.244;7.102;2022-08-19T01:50:17;99127.44;;;18.29;100.00
17450;BME280;8842;51.244;7.102;2022-08-19T02:00:34;99135.47;;;18.33;100.00
17450;BME280;8842;51.244;7.102;2022-08-19T02:10:51;99118.52;;;18.32;100.00
17450;BME280;8842;51.244;7.102;2022-08-19T02:21:07;99122.78;;;18.19;100.00
17450;BME280;8842;51.244;7.102;2022-08-19T02:31:25;99128.45;;;18.28;100.00
17450;BME280;8842;51.244;7.102;2022-08-19T02:41:41;99129.84;;;18.16;100.00
17450;BME280;8842;51.244;7.102;2022-08-19T02:51:58;99137.22;;;18.22;100.00
17450;BME280;8842;51.244;7.102;2022-08-19T03:02:15;99137.77;;;18.01;100.00
17450;BME280;8842;51.244;7.102;2022-08-19T03:12:31;99141.80;;;18.01;100.00
17450;BME280;8842;51.244;7.102;2022-08-19T03:22:49;99123.20;;;17.83;100.00
17450;BME280;8842;51.244;7.102;2022-08-19T03:38:19;99138.34;;;17.76;100.00
17450;BME280;8842;51.244;7.102;2022-08-19T03:48:36;99145.73;;;17.30;100.00
17450;BME280;8842;51.244;7.102;2022-08-19T03:58:54;99148.75;;;17.31;100.00
17450;BME280;8842;51.244;7.102;2022-08-19T04:09:11;99149.92;;;17.33;100.00
17450;BME280;8842;51.244;7.102;2022-08-19T04:19:29;99154.80;;;17.33;100.00
17450;BME280;8842;51.244;7.102;2022-08-19T04:29:45;99150.95;;;17.28;100.00
17450;BME280;8842;51.244;7.102;2022-08-19T04:40:07;99162.02;;;17.37;100.00
17450;BME280;8842;51.244;7.102;2022-08-19T04:50:43;99168.38;;;17.36;100.00
17450;BME280;8842;51.244;7.102;2022-08-19T05:00:59;99182.16;;;17.41;100.00
17450;BME280;8842;51.244;7.102;2022-08-19T05:16:36;99203.52;;;17.50;100.00
17450;BME280;8842;51.244;7.102;2022-08-19T05:26:54;99196.61;;;17.48;100.00
17450;BME280;8842;51.244;7.102;2022-08-19T05:37:14;99200.14;;;17.64;100.00
17450;BME280;8842;51.244;7.102;2022-08-19T05:52:41;99200.80;;;17.91;100.00
17450;BME280;8842;51.244;7.102;2022-08-19T06:02:57;99216.89;;;18.07;100.00
17450;BME280;8842;51.244;7.102;2022-08-19T06:13:15;99211.13;;;18.26;100.00
17450;BME280;8842;51.244;7.102;2022-08-19T06:23:32;99215.13;;;18.50;100.00
17450;BME280;8842;51.244;7.102;2022-08-19T06:33:49;99208.94;;;18.76;100.00
17450;BME280;8842;51.244;7.102;2022-08-19T06:44:06;99209.84;;;18.99;100.00
17450;BME280;8842;51.244;7.102;2022-08-19T06:54:22;99206.16;;;19.26;100.00
17450;BME280;8842;51.244;7.102;2022-08-19T07:04:38;99222.28;;;19.53;100.00
17450;BME280;8842;51.244;7.102;2022-08-19T07:14:56;99220.02;;;19.83;100.00
17450;BME280;8842;51.244;7.102;2022-08-19T07:25:12;99234.28;;;20.06;100.00
17450;BME280;8842;51.244;7.102;2022-08-19T07:35:28;99244.25;;;20.39;100.00
17450;BME280;8842;51.244;7.102;2022-08-19T07:40:32;99256.01;;;20.46;100.00
17450;BME280;8842;51.244;7.102;2022-08-19T07:50:47;99264.59;;;20.74;100.00
17450;BME280;8842;51.244;7.102;2022-08-19T07:55:52;99264.73;;;20.91;100.00
17450;BME280;8842;51.244;7.102;2022-08-19T08:00:57;99278.30;;;21.02;100.00
17450;BME280;8842;51.244;7.102;2022-08-19T08:11:14;99293.38;;;21.36;100.00
17450;BME280;8842;51.244;7.102;2022-08-19T08:16:19;99287.59;;;21.39;100.00
17450;BME280;8842;51.244;7.102;2022-08-19T08:26:36;99302.55;;;21.66;100.00
17450;BME280;8842;51.244;7.102;2022-08-19T08:31:41;99302.70;;;21.80;100.00
17450;BME280;8842;51.244;7.102;2022-08-19T08:36:46;99309.42;;;21.94;100.00
17450;BME280;8842;51.244;7.102;2022-08-19T08:41:56;99312.94;;;22.16;100.00
17450;BME280;8842;51.244;7.102;2022-08-19T08:52:17;99305.08;;;22.48;100.00
17450;BME280;8842;51.244;7.102;2022-08-19T09:02:37;99295.56;;;23.03;100.00
17450;BME280;8842;51.244;7.102;2022-08-19T09:12:59;99295.20;;;24.68;96.89
17450;BME280;8842;51.244;7.102;2022-08-19T09:23:17;99295.19;;;26.14;84.42
17450;BME280;8842;51.244;7.102;2022-08-19T09:33:33;99290.85;;;26.98;79.65
17450;BME280;8842;51.244;7.102;2022-08-19T09:43:53;99280.86;;;27.46;76.19
17450;BME280;8842;51.244;7.102;2022-08-19T09:54:12;99279.70;;;26.48;78.63
17450;BME280;8842;51.244;7.102;2022-08-19T09:59:16;99278.75;;;25.96;79.38
17450;BME280;8842;51.244;7.102;2022-08-19T10:04:20;99284.30;;;26.14;76.04
17450;BME280;8842;51.244;7.102;2022-08-19T10:09:25;99283.56;;;26.25;77.58
17450;BME280;8842;51.244;7.102;2022-08-19T10:14:29;99279.83;;;25.73;75.71
17450;BME280;8842;51.244;7.102;2022-08-19T10:19:34;99281.06;;;25.92;77.04
17450;BME280;8842;51.244;7.102;2022-08-19T10:24:39;99284.12;;;26.09;76.10
17450;BME280;8842;51.244;7.102;2022-08-19T10:34:56;99265.83;;;26.16;75.91
17450;BME280;8842;51.244;7.102;2022-08-19T10:45:14;99277.45;;;26.54;71.46
17450;BME280;8842;51.244;7.102;2022-08-19T10:55:29;99272.14;;;26.59;74.04
17450;BME280;8842;51.244;7.102;2022-08-19T11:06:09;99267.14;;;26.56;71.48
17450;BME280;8842;51.244;7.102;2022-08-19T11:11:19;99267.91;;;26.54;69.91
17450;BME280;8842;51.244;7.102;2022-08-19T11:21:48;99260.33;;;26.38;70.53
17450;BME280;8842;51.244;7.102;2022-08-19T11:32:09;99260.06;;;26.06;71.44
17450;BME280;8842;51.244;7.102;2022-08-19T11:42:29;99252.70;;;25.60;73.21
17450;BME280;8842;51.244;7.102;2022-08-19T11:47:52;99250.31;;;25.38;73.90
17450;BME280;8842;51.244;7.102;2022-08-19T11:52:56;99237.98;;;25.07;74.69
17450;BME280;8842;51.244;7.102;2022-08-19T12:03:12;99239.27;;;25.49;71.80
17450;BME280;8842;51.244;7.102;2022-08-19T12:13:30;99238.85;;;26.23;69.70
17450;BME280;8842;51.244;7.102;2022-08-19T12:23:47;99224.78;;;26.26;68.60
17450;BME280;8842;51.244;7.102;2022-08-19T12:28:53;99230.98;;;26.15;67.32
17450;BME280;8842;51.244;7.102;2022-08-19T12:33:57;99238.20;;;26.37;65.39
17450;BME280;8842;51.244;7.102;2022-08-19T12:39:02;99229.45;;;26.53;64.65
17450;BME280;8842;51.244;7.102;2022-08-19T12:44:07;99221.94;;;26.64;61.67
17450;BME280;8842;51.244;7.102;2022-08-19T12:49:11;99224.16;;;26.58;62.36
17450;BME280;8842;51.244;7.102;2022-08-19T12:54:16;99224.20;;;26.42;64.12
17450;BME280;8842;51.244;7.102;2022-08-19T12:59:20;99223.84;;;26.39;61.02
17450;BME280;8842;51.244;7.102;2022-08-19T13:04:24;99217.46;;;26.27;64.86
17450;BME280;8842;51.244;7.102;2022-08-19T13:09:28;99207.95;;;26.11;64.96
17450;BME280;8842;51.244;7.102;2022-08-19T13:19:44;99207.90;;;25.93;64.87
17450;BME280;8842;51.244;7.102;2022-08-19T13:24:48;99198.19;;;25.88;65.31
17450;BME280;8842;51.244;7.102;2022-08-19T13:29:52;99184.73;;;25.84;68.03
17450;BME280;8842;51.244;7.102;2022-08-19T13:35:17;99183.91;;;25.99;66.15
17450;BME280;8842;51.244;7.102;2022-08-19T13:45:35;99172.77;;;26.43;60.77
17450;BME280;8842;51.244;7.102;2022-08-19T13:55:52;99164.73;;;26.57;61.50
17450;BME280;8842;51.244;7.102;2022-08-19T14:06:09;99156.53;;;26.64;58.15
17450;BME280;8842;51.244;7.102;2022-08-19T14:16:24;99151.34;;;26.56;58.78
17450;BME280;8842;51.244;7.102;2022-08-19T14:26:41;99148.62;;;26.47;59.42
17450;BME280;8842;51.244;7.102;2022-08-19T14:36:57;99158.31;;;26.61;59.39
17450;BME280;8842;51.244;7.102;2022-08-19T14:42:05;99167.01;;;26.51;58.52
17450;BME280;8842;51.244;7.102;2022-08-19T14:52:19;99172.08;;;26.30;57.89
17450;BME280;8842;51.244;7.102;2022-08-19T15:07:47;99175.48;;;26.34;56.12
17450;BME280;8842;51.244;7.102;2022-08-19T15:18:03;99179.95;;;26.29;57.99
17450;BME280;8842;51.244;7.102;2022-08-19T15:28:20;99176.15;;;26.21;57.96
17450;BME280;8842;51.244;7.102;2022-08-19T15:38:36;99189.55;;;26.31;58.96
17450;BME280;8842;51.244;7.102;2022-08-19T15:48:54;99202.47;;;26.18;59.40
17450;BME280;8842;51.244;7.102;2022-08-19T15:59:11;99199.81;;;26.20;59.21
17450;BME280;8842;51.244;7.102;2022-08-19T16:09:55;99195.94;;;26.01;61.30
17450;BME280;8842;51.244;7.102;2022-08-19T16:20:12;99199.22;;;25.78;63.50
17450;BME280;8842;51.244;7.102;2022-08-19T16:30:27;99213.16;;;25.64;62.73
17450;BME280;8842;51.244;7.102;2022-08-19T16:40:43;99226.86;;;25.60;62.70
17450;BME280;8842;51.244;7.102;2022-08-19T16:51:00;99221.98;;;25.68;63.21
17450;BME280;8842;51.244;7.102;2022-08-19T17:01:16;99217.03;;;25.43;63.16
17450;BME280;8842;51.244;7.102;2022-08-19T17:11:32;99212.80;;;25.09;63.58
17450;BME280;8842;51.244;7.102;2022-08-19T17:21:48;99216.70;;;24.76;66.05
17450;BME280;8842;51.244;7.102;2022-08-19T17:32:03;99213.91;;;24.67;66.74
17450;BME280;8842;51.244;7.102;2022-08-19T17:42:22;99204.94;;;24.47;67.82
17450;BME280;8842;51.244;7.102;2022-08-19T17:47:26;99214.27;;;24.42;68.07
17450;BME280;8842;51.244;7.102;2022-08-19T17:52:31;99219.69;;;24.42;67.92
17450;BME280;8842;51.244;7.102;2022-08-19T18:07:59;99211.94;;;24.45;67.64
17450;BME280;8842;51.244;7.102;2022-08-19T18:18:15;99211.16;;;24.25;68.88
17450;BME280;8842;51.244;7.102;2022-08-19T18:28:31;99213.65;;;23.94;71.61
17450;BME280;8842;51.244;7.102;2022-08-19T18:38:46;99214.15;;;23.74;73.09
17450;BME280;8842;51.244;7.102;2022-08-19T18:49:23;99218.80;;;23.50;75.24
17450;BME280;8842;51.244;7.102;2022-08-19T18:59:40;99228.88;;;23.32;79.14
17450;BME280;8842;51.244;7.102;2022-08-19T19:09:57;99227.39;;;23.23;81.89
17450;BME280;8842;51.244;7.102;2022-08-19T19:15:02;99226.41;;;23.14;83.65
17450;BME280;8842;51.244;7.102;2022-08-19T19:25:26;99253.61;;;23.10;88.24
17450;BME280;8842;51.244;7.102;2022-08-19T19:35:42;99257.33;;;23.02;87.93
17450;BME280;8842;51.244;7.102;2022-08-19T19:45:58;99259.44;;;22.90;88.63
17450;BME280;8842;51.244;7.102;2022-08-19T19:56:15;99270.83;;;22.79;88.02
17450;BME280;8842;51.244;7.102;2022-08-19T20:01:20;99277.70;;;22.58;89.23
17450;BME280;8842;51.244;7.102;2022-08-19T20:11:41;99289.91;;;22.37;91.77
17450;BME280;8842;51.244;7.102;2022-08-19T20:21:57;99298.05;;;22.16;95.28
17450;BME280;8842;51.244;7.102;2022-08-19T20:32:14;99308.69;;;22.07;97.71
17450;BME280;8842;51.244;7.102;2022-08-19T20:42:30;99308.84;;;21.99;99.24
17450;BME280;8842;51.244;7.102;2022-08-19T20:52:47;99324.73;;;21.87;99.61
17450;BME280;8842;51.244;7.102;2022-08-19T21:03:02;99319.03;;;21.72;100.00
17450;BME280;8842;51.244;7.102;2022-08-19T21:13:19;99333.13;;;21.67;100.00
17450;BME280;8842;51.244;7.102;2022-08-19T21:18:24;99328.98;;;21.60;100.00
17450;BME280;8842;51.244;7.102;2022-08-19T21:28:41;99332.59;;;21.67;100.00
17450;BME280;8842;51.244;7.102;2022-08-19T21:33:46;99333.44;;;21.68;100.00
17450;BME280;8842;51.244;7.102;2022-08-19T21:44:02;99333.67;;;21.77;100.00
17450;BME280;8842;51.244;7.102;2022-08-19T21:59:29;99331.67;;;21.75;100.00
17450;BME280;8842;51.244;7.102;2022-08-19T22:09:47;99338.97;;;21.75;100.00
17450;BME280;8842;51.244;7.102;2022-08-19T22:20:07;99333.58;;;21.60;100.00
17450;BME280;8842;51.244;7.102;2022-08-19T22:30:25;99333.99;;;21.53;100.00
17450;BME280;8842;51.244;7.102;2022-08-19T22:40:45;99344.02;;;21.48;100.00
17450;BME280;8842;51.244;7.102;2022-08-19T22:51:02;99346.72;;;21.48;100.00
17450;BME280;8842;51.244;7.102;2022-08-19T23:01:37;99352.51;;;21.45;100.00
17450;BME280;8842;51.244;7.102;2022-08-19T23:11:55;99341.07;;;21.43;100.00
17450;BME280;8842;51.244;7.102;2022-08-19T23:22:15;99337.61;;;21.35;100.00
17450;BME280;8842;51.244;7.102;2022-08-19T23:32:34;99338.27;;;21.37;100.00
17450;BME280;8842;51.244;7.102;2022-08-19T23:42:50;99331.67;;;21.25;100.00
17450;BME280;8842;51.244;7.102;2022-08-19T23:53:09;99332.40;;;21.23;100.00
